Time;durP1;ratioP1;P1;durP2;ratioP2;P2;SDS_P1;SDS_P2;PMS_P1;PMS_P2;Temp;Humidity;BMP_temperature;BMP_pressure;BME280_temperature;BME280_humidity;BME280_pressure;Samples;Min_cycle;Max_cycle;Signal;HPM_P1;HPM_P2
2022/05/30 00:01:13;;;;;;;9.38;7.60;;;;;;;9.00;81.89;95705.03;5091186;28;20047;-76
2022/05/30 00:03:40;;;;;;;7.55;6.22;;;;;;;8.96;81.59;95705.97;5091656;28;20044;-76
2022/05/30 00:06:08;;;;;;;6.95;5.70;;;;;;;8.94;81.58;95709.03;5091048;28;20055;-76
2022/05/30 00:08:35;;;;;;;6.90;5.93;;;;;;;8.88;80.83;95704.91;5091737;28;20035;-77
2022/05/30 00:11:03;;;;;;;6.53;5.72;;;;;;;8.87;81.00;95712.25;5089332;28;20067;-75
2022/05/30 00:13:29;;;;;;;6.97;5.70;;;;;;;8.88;80.52;95704.91;5091482;28;20127;-76
2022/05/30 00:15:56;;;;;;;7.43;6.28;;;;;;;8.87;80.49;95703.28;5091287;28;20044;-76
2022/05/30 00:18:24;;;;;;;7.53;6.10;;;;;;;8.85;81.12;95709.03;5090842;28;20044;-77
2022/05/30 00:20:50;;;;;;;7.00;6.00;;;;;;;8.86;81.01;95704.41;5091495;28;20036;-77
2022/05/30 00:23:17;;;;;;;6.82;6.13;;;;;;;8.86;81.37;95694.34;5090786;28;20044;-78
2022/05/30 00:25:44;;;;;;;7.75;5.90;;;;;;;8.82;81.67;95692.59;5091103;28;20040;-77
2022/05/30 00:28:10;;;;;;;8.13;6.03;;;;;;;8.81;81.57;95696.44;5090610;28;20052;-76
2022/05/30 00:30:38;;;;;;;6.07;4.65;;;;;;;8.76;81.26;95693.88;5090998;28;20589;-77
2022/05/30 00:33:05;;;;;;;6.90;5.68;;;;;;;8.71;81.21;95691.34;5090400;28;20055;-75
2022/05/30 00:35:33;;;;;;;5.90;4.78;;;;;;;8.70;80.74;95700.59;5090977;28;20044;-76
2022/05/30 00:37:59;;;;;;;5.95;4.55;;;;;;;8.59;80.37;95703.66;5090878;28;20553;-76
2022/05/30 00:40:26;;;;;;;6.38;4.60;;;;;;;8.58;80.42;95693.91;5086648;28;20127;-77
2022/05/30 00:42:52;;;;;;;5.15;4.10;;;;;;;8.54;79.66;95692.16;5070648;28;20059;-76
2022/05/30 00:45:19;;;;;;;4.90;4.40;;;;;;;8.53;80.07;95696.78;5070101;28;20049;-76
2022/05/30 00:47:46;;;;;;;6.50;4.20;;;;;;;8.57;79.47;95699.66;5070438;28;20040;-77
2022/05/30 00:50:14;;;;;;;5.95;4.97;;;;;;;8.55;79.37;95694.53;5070010;28;20068;-76
2022/05/30 00:52:44;;;;;;;5.97;5.10;;;;;;;8.54;79.98;95698.38;5060473;28;20044;-76
2022/05/30 00:55:15;;;;;;;8.70;4.55;;;;;;;8.55;80.29;95689.13;5070006;28;20051;-76
2022/05/30 00:57:43;;;;;;;5.00;4.38;;;;;;;8.50;80.76;95686.56;5070446;28;20044;-76
2022/05/30 01:00:13;;;;;;;5.70;3.85;;;;;;;8.48;80.62;95688.81;5068956;28;20055;-75
2022/05/30 01:02:42;;;;;;;4.70;4.07;;;;;;;8.49;80.36;95679.56;5070506;28;20051;-76
2022/05/30 01:08:12;;;;;;;5.13;4.60;;;;;;;8.44;80.58;95668.84;5027201;28;20049;-75
2022/05/30 01:10:38;;;;;;;7.35;5.55;;;;;;;8.45;80.90;95669.66;5032838;28;20041;-78
2022/05/30 01:13:12;;;;;;;4.95;4.10;;;;;;;8.37;80.58;95665.84;5065676;28;20044;-76
2022/05/30 01:15:38;;;;;;;4.88;4.35;;;;;;;8.31;80.82;95662.47;5090503;28;20040;-76
2022/05/30 01:18:11;;;;;;;6.28;5.30;;;;;;;8.31;80.15;95661.69;5089962;28;20790;-76
2022/05/30 01:20:48;;;;;;;4.78;4.25;;;;;;;8.25;80.69;95660.25;5090415;28;20044;-76
2022/05/30 01:23:58;;;;;;;5.57;4.05;;;;;;;8.17;80.22;95656.41;5089573;28;20047;-76
2022/05/30 01:26:40;;;;;;;4.82;4.22;;;;;;;8.14;80.31;95661.66;5089425;28;20048;-77
2022/05/30 01:29:12;;;;;;;8.15;4.60;;;;;;;8.15;80.43;95663.28;5089675;28;20067;-75
2022/05/30 01:31:39;;;;;;;5.22;4.32;;;;;;;8.16;80.88;95656.72;5090254;28;20044;-77
2022/05/30 01:34:06;;;;;;;4.30;3.88;;;;;;;8.13;80.63;95660.06;5089717;28;20054;-76
2022/05/30 01:36:34;;;;;;;5.10;4.18;;;;;;;8.05;80.41;95651.63;5090244;28;20040;-77
2022/05/30 01:39:01;;;;;;;5.38;4.10;;;;;;;8.00;79.98;95649.06;5089990;28;20040;-75
2022/05/30 01:41:27;;;;;;;5.65;4.25;;;;;;;7.99;80.19;95646.69;5087987;28;20036;-76
2022/05/30 01:43:54;;;;;;;6.38;4.28;;;;;;;8.01;80.89;95647.94;5089883;28;20048;-76
2022/05/30 01:46:26;;;;;;;5.60;4.45;;;;;;;8.02;80.74;95638.69;5089458;28;20470;-76
2022/05/30 01:48:53;;;;;;;4.65;4.10;;;;;;;7.96;80.58;95645.38;5089917;28;20055;-75
2022/05/30 01:51:21;;;;;;;4.60;4.03;;;;;;;8.00;80.99;95646.34;5089540;28;20044;-78
2022/05/30 01:53:48;;;;;;;5.68;4.65;;;;;;;8.01;81.40;95642.53;5089958;28;20052;-76
2022/05/30 01:56:15;;;;;;;5.93;3.85;;;;;;;8.00;81.29;95643.66;5089301;28;20051;-76
2022/05/30 01:58:41;;;;;;;4.65;3.80;;;;;;;7.99;81.71;95644.75;5090024;28;20399;-77
2022/05/30 02:01:16;;;;;;;4.47;3.90;;;;;;;7.97;81.83;95649.69;5089374;28;20517;-77
2022/05/30 02:03:44;;;;;;;5.00;4.10;;;;;;;7.97;81.42;95652.41;5089755;28;20044;-76
2022/05/30 02:06:10;;;;;;;4.75;3.70;;;;;;;7.96;80.95;95639.19;5089126;28;20052;-76
2022/05/30 02:08:37;;;;;;;4.63;3.80;;;;;;;7.96;81.00;95637.25;5089596;28;20051;-77
2022/05/30 02:11:04;;;;;;;8.13;4.10;;;;;;;7.98;81.12;95632.31;5088651;28;20048;-75
2022/05/30 02:13:31;;;;;;;5.55;3.90;;;;;;;7.97;81.19;95625.28;5093899;28;20040;-76
2022/05/30 02:18:41;;;;;;;4.25;3.60;;;;;;;7.98;81.77;95621.47;5093575;28;20085;-76
2022/05/30 02:21:09;;;;;;;4.75;3.80;;;;;;;7.96;81.01;95623.69;5092908;28;20058;-75
2022/05/30 02:23:36;;;;;;;4.10;3.22;;;;;;;7.91;81.15;95632.00;5093382;28;20048;-76
2022/05/30 02:26:03;;;;;;;6.80;3.58;;;;;;;7.89;80.75;95628.81;5092919;28;20071;-74
2022/05/30 02:28:29;;;;;;;4.70;3.88;;;;;;;7.84;80.32;95626.25;5093211;28;20043;-76
2022/05/30 02:30:57;;;;;;;4.72;3.65;;;;;;;7.79;80.21;95629.13;5093200;28;20052;-76
2022/05/30 02:38:54;;;;;;;5.10;4.40;;;;;;;7.73;80.59;95622.28;5092995;28;20047;-76
2022/05/30 02:41:20;;;;;;;5.50;3.88;;;;;;;7.76;81.11;95629.75;5091041;28;20066;-77
2022/05/30 02:43:47;;;;;;;4.32;3.63;;;;;;;7.75;80.95;95623.53;5092871;28;20044;-78
2022/05/30 02:46:14;;;;;;;5.00;3.88;;;;;;;7.68;80.70;95625.13;5092390;28;20129;-76
2022/05/30 02:48:41;;;;;;;5.28;4.05;;;;;;;7.68;80.57;95625.94;5093044;28;20044;-77
2022/05/30 02:51:09;;;;;;;6.55;4.05;;;;;;;7.68;80.38;95628.63;5092351;28;20044;-76
2022/05/30 02:53:35;;;;;;;4.50;3.67;;;;;;;7.65;80.28;95623.03;5092922;28;20051;-75
2022/05/30 02:56:02;;;;;;;4.90;3.60;;;;;;;7.65;80.00;95633.88;5092223;28;20051;-76
2022/05/30 02:58:29;;;;;;;7.60;4.25;;;;;;;7.64;80.48;95626.88;5092902;28;20062;-76
2022/05/30 03:00:56;;;;;;;7.50;4.07;;;;;;;7.62;80.44;95627.16;5092697;28;20063;-75
2022/05/30 03:03:22;;;;;;;5.07;4.05;;;;;;;7.61;80.42;95624.78;5092214;28;20071;-75
2022/05/30 03:05:49;;;;;;;4.47;3.70;;;;;;;7.57;80.20;95627.34;5092640;28;20483;-76
2022/05/30 03:08:17;;;;;;;6.07;4.28;;;;;;;7.53;80.02;95629.88;5092141;28;20055;-76
2022/05/30 03:10:44;;;;;;;8.15;4.93;;;;;;;7.55;80.14;95626.84;5091799;28;20130;-76
2022/05/30 03:13:10;;;;;;;5.18;4.10;;;;;;;7.52;79.87;95647.25;5092253;28;20063;-76
2022/05/30 03:15:36;;;;;;;6.05;4.55;;;;;;;7.52;79.68;95644.53;5092521;28;20040;-77
2022/05/30 03:18:03;;;;;;;10.70;4.97;;;;;;;7.53;79.18;95643.44;5091902;28;20063;-75
2022/05/30 03:20:30;;;;;;;7.68;5.57;;;;;;;7.50;79.55;95652.16;5092490;28;20064;-75
2022/05/30 03:22:57;;;;;;;6.82;5.28;;;;;;;7.54;80.00;95644.22;5091279;28;20040;-75
2022/05/30 03:25:25;;;;;;;6.82;4.85;;;;;;;7.51;80.70;95645.63;5091705;28;20046;-77
2022/05/30 03:27:52;;;;;;;8.48;6.20;;;;;;;7.51;80.78;95653.75;5092021;28;20039;-76
2022/05/30 03:30:18;;;;;;;6.22;5.13;;;;;;;7.52;80.78;95663.50;5091804;28;20044;-76
2022/05/30 03:32:45;;;;;;;7.88;5.85;;;;;;;7.53;80.67;95654.25;5092357;28;20048;-76
2022/05/30 03:35:13;;;;;;;6.95;5.22;;;;;;;7.54;80.93;95666.69;5091709;28;20044;-76
2022/05/30 03:37:40;;;;;;;6.40;4.93;;;;;;;7.51;80.36;95664.59;5092361;28;20040;-76
2022/05/30 03:40:09;;;;;;;6.28;5.53;;;;;;;7.47;80.21;95666.38;5090583;28;20048;-76
2022/05/30 03:42:37;;;;;;;9.43;6.75;;;;;;;7.50;80.24;95665.72;5091910;28;20040;-76
2022/05/30 03:45:05;;;;;;;6.13;5.10;;;;;;;7.57;80.47;95676.91;5091495;28;20047;-76
2022/05/30 03:47:36;;;;;;;5.78;4.72;;;;;;;7.58;80.36;95673.09;5091890;28;20032;-77
2022/05/30 03:50:04;;;;;;;6.55;5.40;;;;;;;7.61;80.36;95676.25;5091519;28;20067;-77
2022/05/30 03:52:30;;;;;;;6.13;5.05;;;;;;;7.64;80.69;95675.66;5091758;28;20043;-76
2022/05/30 03:54:57;;;;;;;7.65;5.47;;;;;;;7.61;80.57;95670.84;5091763;28;20071;-77
2022/05/30 03:57:23;;;;;;;7.88;5.18;;;;;;;7.61;80.58;95670.84;5091146;28;20040;-76
2022/05/30 03:59:51;;;;;;;6.65;4.78;;;;;;;7.67;80.10;95664.16;5091678;28;20044;-77
2022/05/30 04:02:18;;;;;;;6.75;5.40;;;;;;;7.73;79.62;95668.34;5091150;28;20051;-76
2022/05/30 04:04:44;;;;;;;6.25;5.40;;;;;;;7.76;79.45;95670.41;5091686;28;20154;-76
2022/05/30 04:07:10;;;;;;;7.28;5.53;;;;;;;7.78;79.77;95665.47;5090826;28;20040;-76
2022/05/30 04:09:37;;;;;;;7.70;6.50;;;;;;;7.83;80.71;95663.41;5090609;28;20048;-76
2022/05/30 04:12:04;;;;;;;7.30;5.75;;;;;;;7.88;81.35;95662.44;5090937;28;20053;-75
2022/05/30 04:14:31;;;;;;;6.97;5.90;;;;;;;7.94;81.57;95660.41;5091515;28;20040;-77
2022/05/30 04:16:59;;;;;;;6.72;5.35;;;;;;;7.98;81.30;95664.84;5091158;28;20044;-76
2022/05/30 04:19:25;;;;;;;9.80;5.65;;;;;;;8.02;80.90;95660.38;5090774;28;20047;-76
2022/05/30 04:21:52;;;;;;;8.13;6.68;;;;;;;8.01;80.89;95656.06;5091088;28;20495;-77
2022/05/30 04:24:18;;;;;;;8.85;6.20;;;;;;;8.00;81.06;95662.63;5090618;28;20044;-77
2022/05/30 04:26:45;;;;;;;7.50;6.15;;;;;;;8.02;81.27;95660.38;5090756;28;20052;-76
2022/05/30 04:29:11;;;;;;;8.73;6.32;;;;;;;8.05;81.53;95658.97;5090504;28;20051;-77
2022/05/30 04:31:38;;;;;;;7.82;6.20;;;;;;;8.05;81.23;95659.75;5090855;28;20079;-76
2022/05/30 04:34:06;;;;;;;7.97;6.43;;;;;;;8.03;80.87;95659.25;5090093;28;20043;-76
2022/05/30 04:36:33;;;;;;;9.00;7.00;;;;;;;8.08;80.85;95667.25;5090904;28;20052;-75
2022/05/30 04:39:00;;;;;;;10.50;6.30;;;;;;;8.08;80.36;95669.16;5090661;28;20044;-76
2022/05/30 04:41:26;;;;;;;8.85;6.78;;;;;;;8.08;79.81;95664.53;5089649;28;20040;-76
2022/05/30 04:43:53;;;;;;;9.43;6.35;;;;;;;8.05;80.05;95673.31;5090598;28;20044;-77
2022/05/30 04:46:20;;;;;;;8.77;6.90;;;;;;;8.15;80.47;95666.00;5090188;28;20052;-76
2022/05/30 04:48:47;;;;;;;8.88;7.32;;;;;;;8.25;80.97;95669.19;5090473;28;20044;-75
2022/05/30 04:51:15;;;;;;;8.85;7.10;;;;;;;8.32;81.34;95665.97;5090032;28;20048;-76
2022/05/30 04:53:42;;;;;;;8.60;5.85;;;;;;;8.25;80.63;95671.88;5090440;28;20048;-75
2022/05/30 04:56:09;;;;;;;10.93;7.72;;;;;;;8.31;80.69;95669.81;5090163;28;20048;-76
2022/05/30 04:58:36;;;;;;;7.97;6.30;;;;;;;8.33;80.72;95681.91;5090525;28;20430;-76
2022/05/30 05:01:05;;;;;;;7.55;5.80;;;;;;;8.40;80.25;95678.75;5089945;28;20070;-76
2022/05/30 05:03:34;;;;;;;7.18;5.88;;;;;;;8.44;80.36;95682.44;5090520;28;20050;-77
2022/05/30 05:06:02;;;;;;;9.38;6.03;;;;;;;8.54;80.67;95681.31;5090300;28;20076;-76
2022/05/30 05:08:37;;;;;;;7.47;5.55;;;;;;;8.55;80.75;95686.41;5090305;28;20039;-76
2022/05/30 05:11:14;;;;;;;7.13;5.78;;;;;;;8.58;79.61;95671.41;5088293;28;20052;-76
2022/05/30 05:13:40;;;;;;;7.55;6.35;;;;;;;8.62;79.76;95681.31;5090262;28;20430;-75
2022/05/30 05:16:07;;;;;;;12.68;7.18;;;;;;;8.63;80.44;95685.59;5089753;28;20048;-76
2022/05/30 05:18:34;;;;;;;9.48;6.88;;;;;;;8.67;80.45;95682.25;5090181;28;20044;-76
2022/05/30 05:21:00;;;;;;;10.40;7.00;;;;;;;8.64;80.30;95691.81;5090129;28;20051;-78
2022/05/30 05:23:27;;;;;;;10.95;6.88;;;;;;;8.73;80.78;95689.91;5089792;28;20040;-76
2022/05/30 05:25:55;;;;;;;10.15;7.45;;;;;;;8.79;80.79;95698.69;5090205;28;20048;-77
2022/05/30 05:28:22;;;;;;;9.05;6.63;;;;;;;8.84;81.21;95696.59;5089238;28;20509;-77
2022/05/30 05:30:48;;;;;;;9.52;6.93;;;;;;;8.88;81.03;95694.03;5090124;28;20434;-76
2022/05/30 05:33:18;;;;;;;11.63;7.93;;;;;;;8.92;81.42;95688.72;5089414;28;20044;-76
2022/05/30 05:35:45;;;;;;;10.65;8.80;;;;;;;8.98;81.28;95690.97;5090099;28;20127;-76
2022/05/30 05:38:12;;;;;;;9.93;7.60;;;;;;;9.06;81.56;95686.63;5089373;28;20044;-76
2022/05/30 05:40:40;;;;;;;10.65;6.60;;;;;;;8.95;78.66;95691.63;5088862;28;20032;-76
2022/05/30 05:43:08;;;;;;;10.07;6.75;;;;;;;8.70;78.07;95689.75;5089391;28;20073;-76
2022/05/30 05:45:34;;;;;;;8.90;6.70;;;;;;;8.77;78.89;95687.31;5093585;28;20044;-76
2022/05/30 05:48:01;;;;;;;8.93;6.93;;;;;;;8.92;78.82;95689.53;5095867;28;20048;-78
2022/05/30 05:50:27;;;;;;;8.23;7.00;;;;;;;9.03;79.08;95693.53;5096456;28;20036;-77
2022/05/30 05:52:54;;;;;;;8.30;6.90;;;;;;;9.11;79.07;95692.69;5096547;28;20046;-76
2022/05/30 05:55:21;;;;;;;12.32;7.13;;;;;;;9.20;78.85;95678.28;5095933;28;20044;-76
2022/05/30 05:57:47;;;;;;;9.52;7.05;;;;;;;9.25;79.26;95669.97;5096723;28;20047;-76
2022/05/30 06:00:17;;;;;;;12.30;8.20;;;;;;;9.32;79.67;95668.31;5095983;28;20059;-75
2022/05/30 06:02:44;;;;;;;9.30;6.88;;;;;;;9.43;79.91;95678.81;5096348;28;20047;-76
2022/05/30 06:05:11;;;;;;;6.63;5.72;;;;;;;9.48;79.05;95674.00;5096074;28;20055;-77
2022/05/30 06:07:39;;;;;;;7.68;6.15;;;;;;;9.53;77.92;95679.25;5096690;28;20068;-76
2022/05/30 06:10:08;;;;;;;10.75;7.32;;;;;;;9.58;78.21;95681.78;5095013;28;20490;-76
2022/05/30 06:12:37;;;;;;;7.32;5.75;;;;;;;9.65;78.86;95684.78;5096563;28;20047;-76
2022/05/30 06:15:04;;;;;;;11.57;5.82;;;;;;;9.68;78.70;95686.84;5096046;28;20044;-76
2022/05/30 06:17:32;;;;;;;10.48;7.07;;;;;;;9.60;76.90;95682.25;5096350;28;20044;-76
2022/05/30 06:19:59;;;;;;;454.00;227.30;;;;;;;9.71;77.51;95684.59;5096299;28;20055;-76
2022/05/30 06:22:26;;;;;;;398.95;183.48;;;;;;;9.85;77.95;95685.16;5095598;28;20044;-75
2022/05/30 06:24:52;;;;;;;7.13;5.78;;;;;;;9.93;78.45;95678.88;5096262;28;20487;-75
2022/05/30 06:27:20;;;;;;;7.18;5.22;;;;;;;10.06;79.06;95677.00;5095621;28;20059;-76
2022/05/30 06:29:49;;;;;;;51.55;31.75;;;;;;;10.16;79.37;95679.34;5096342;28;20446;-75
2022/05/30 06:32:15;;;;;;;350.70;168.52;;;;;;;10.29;78.94;95682.97;5095918;28;20473;-76
2022/05/30 06:34:43;;;;;;;576.67;254.27;;;;;;;10.38;78.99;95686.41;5096240;28;20051;-77
2022/05/30 06:37:10;;;;;;;573.22;263.38;;;;;;;10.35;77.16;95676.19;5095869;28;20051;-76
2022/05/30 06:39:37;;;;;;;549.13;250.70;;;;;;;10.33;77.86;95679.22;5095321;28;20074;-76
2022/05/30 06:42:04;;;;;;;551.00;276.27;;;;;;;10.42;77.92;95677.25;5095601;28;20051;-76
2022/05/30 06:44:32;;;;;;;540.10;263.83;;;;;;;10.39;77.12;95677.94;5096319;28;20047;-76
2022/05/30 06:46:58;;;;;;;49.90;17.20;;;;;;;10.37;75.61;95674.72;5096343;28;20418;-75
2022/05/30 06:49:25;;;;;;;334.33;199.90;;;;;;;10.30;77.84;95668.22;5095617;28;20040;-76
2022/05/30 06:51:52;;;;;;;499.77;139.23;;;;;;;10.41;78.51;95669.41;5096134;28;20044;-76
2022/05/30 06:54:20;;;;;;;46.38;37.05;;;;;;;10.64;78.61;95673.34;5095579;28;20047;-77
2022/05/30 06:59:27;;;;;;;120.28;58.72;;;;;;;10.98;77.70;95677.69;5091783;28;20044;-75
2022/05/30 07:01:53;;;;;;;15.82;12.18;;;;;;;11.08;77.36;95687.34;5093020;28;20075;-75
2022/05/30 07:04:20;;;;;;;402.45;187.63;;;;;;;11.27;77.69;95689.53;5092237;28;20067;-75
2022/05/30 07:06:46;;;;;;;556.90;266.13;;;;;;;11.40;77.92;95688.44;5092589;28;20048;-76
2022/05/30 07:09:14;;;;;;;565.10;314.95;;;;;;;11.42;75.13;95685.34;5092191;28;20043;-75
2022/05/30 07:11:41;;;;;;;550.50;229.77;;;;;;;11.38;71.88;95685.25;5092264;28;20040;-74
2022/05/30 07:14:10;;;;;;;577.45;304.83;;;;;;;11.46;70.98;95691.72;5092061;28;20047;-74
2022/05/30 07:16:37;;;;;;;470.95;126.60;;;;;;;11.40;70.29;95687.63;5092508;28;20048;-75
2022/05/30 07:19:04;;;;;;;7.28;4.60;;;;;;;11.33;68.70;95684.66;5091938;28;20047;-75
2022/05/30 07:21:31;;;;;;;7.25;4.47;;;;;;;11.34;69.85;95683.53;5092391;28;20044;-75
2022/05/30 07:23:57;;;;;;;439.05;113.35;;;;;;;11.36;68.96;95689.44;5092380;28;20059;-76
2022/05/30 07:26:25;;;;;;;409.60;98.93;;;;;;;11.38;70.91;95692.59;5091925;28;20044;-75
2022/05/30 07:28:52;;;;;;;441.33;108.47;;;;;;;11.51;71.67;95694.22;5092215;28;20044;-75
2022/05/30 07:31:21;;;;;;;13.13;5.80;;;;;;;11.59;70.20;95696.06;5091770;28;20074;-76
2022/05/30 07:33:49;;;;;;;73.05;34.78;;;;;;;11.81;71.29;95692.09;5092309;28;20047;-77
2022/05/30 07:36:21;;;;;;;420.92;102.45;;;;;;;11.98;71.13;95696.53;5091487;28;20044;-76
2022/05/30 07:38:47;;;;;;;21.98;13.25;;;;;;;11.99;67.77;95696.19;5092085;28;20070;-75
2022/05/30 07:41:14;;;;;;;13.63;9.02;;;;;;;11.91;67.79;95699.06;5090907;28;20036;-76
2022/05/30 07:43:42;;;;;;;16.73;9.50;;;;;;;11.98;66.89;95685.63;5092151;28;20044;-77
2022/05/30 07:46:11;;;;;;;16.75;8.48;;;;;;;12.02;67.00;95692.78;5091464;28;20044;-75
2022/05/30 07:48:39;;;;;;;212.02;59.58;;;;;;;12.27;69.97;95693.53;5091918;28;20127;-75
2022/05/30 07:51:07;;;;;;;22.25;13.98;;;;;;;12.37;66.48;95703.19;5091438;28;20042;-77
2022/05/30 07:53:34;;;;;;;19.33;12.88;;;;;;;12.45;67.35;95694.03;5091711;28;20542;-76
2022/05/30 07:56:01;;;;;;;30.50;21.80;;;;;;;12.59;67.53;95699.13;5091875;28;20052;-76
2022/05/30 07:58:28;;;;;;;19.20;9.77;;;;;;;12.78;66.35;95695.75;5091290;28;20044;-76
2022/05/30 08:00:56;;;;;;;16.67;8.43;;;;;;;12.86;60.85;95699.50;5091654;28;20616;-76
2022/05/30 08:03:25;;;;;;;302.58;71.32;;;;;;;12.94;60.22;95701.25;5091086;28;20483;-77
2022/05/30 08:05:52;;;;;;;608.13;371.05;;;;;;;13.45;59.79;95704.19;5091543;28;20048;-75
2022/05/30 08:08:19;;;;;;;607.47;389.55;;;;;;;14.26;59.54;95690.88;5090476;28;20411;-75
2022/05/30 08:10:46;;;;;;;617.60;438.63;;;;;;;14.96;55.14;95690.00;5089862;28;20040;-76
2022/05/30 08:13:13;;;;;;;615.00;454.90;;;;;;;15.47;55.34;95698.00;5090644;28;20051;-75
2022/05/30 08:15:39;;;;;;;294.80;72.18;;;;;;;15.79;54.12;95699.38;5091405;28;20093;-75
2022/05/30 08:18:08;;;;;;;6.65;3.45;;;;;;;16.05;55.56;95700.56;5090897;28;20040;-75
2022/05/30 08:20:34;;;;;;;301.10;71.63;;;;;;;15.98;55.46;95700.47;5091389;28;20052;-75
2022/05/30 08:23:01;;;;;;;305.23;73.32;;;;;;;15.59;51.04;95706.84;5091081;28;20048;-76
2022/05/30 08:25:28;;;;;;;5.40;3.10;;;;;;;15.45;52.34;95700.31;5090999;28;20047;-75
2022/05/30 08:27:54;;;;;;;488.55;272.55;;;;;;;15.58;51.14;95698.97;5091164;28;20038;-75
2022/05/30 08:30:22;;;;;;;439.30;111.65;;;;;;;15.73;54.59;95703.59;5090521;28;20996;-77
2022/05/30 08:32:50;;;;;;;4.88;3.30;;;;;;;15.86;54.82;95699.47;5091118;28;20039;-77
2022/05/30 08:35:19;;;;;;;433.67;112.07;;;;;;;15.81;51.04;95713.50;5090577;28;20115;-77
2022/05/30 08:37:47;;;;;;;228.55;155.18;;;;;;;15.86;51.05;95715.16;5090951;28;20044;-78
2022/05/30 08:43:06;;;;;;;19.48;12.45;;;;;;;16.03;51.84;95708.38;5090480;28;20104;-75
2022/05/30 08:45:33;;;;;;;18.20;10.90;;;;;;;16.08;52.39;95708.06;5090751;28;20502;-78
2022/05/30 08:48:00;;;;;;;19.73;9.98;;;;;;;16.06;52.14;95713.13;5090457;28;20540;-78
2022/05/30 08:50:35;;;;;;;17.55;8.25;;;;;;;16.18;52.21;95718.41;5090177;28;20043;-76
2022/05/30 08:53:38;;;;;;;19.45;10.07;;;;;;;16.30;48.58;95718.22;5090139;28;20141;-75
2022/05/30 08:56:16;;;;;;;18.47;9.83;;;;;;;16.38;48.70;95714.38;5090147;28;20047;-78
2022/05/30 08:59:02;;;;;;;17.17;8.45;;;;;;;16.47;49.71;95718.84;5090383;28;20763;-75
2022/05/30 09:01:32;;;;;;;19.33;9.20;;;;;;;16.54;53.15;95707.94;5090405;28;20078;-76
2022/05/30 09:04:08;;;;;;;23.13;10.88;;;;;;;16.55;51.62;95723.25;5090488;28;20052;-76
2022/05/30 09:06:42;;;;;;;16.10;9.10;;;;;;;16.74;53.23;95717.66;5090394;28;20068;-76
2022/05/30 09:09:16;;;;;;;22.67;10.45;;;;;;;16.88;48.87;95726.09;5089869;28;20048;-75
2022/05/30 09:11:46;;;;;;;15.55;8.90;;;;;;;16.84;48.78;95725.25;5090455;28;20066;-79
2022/05/30 09:14:16;;;;;;;21.30;12.10;;;;;;;16.95;53.18;95720.66;5089358;28;20044;-78
2022/05/30 09:16:48;;;;;;;23.95;13.55;;;;;;;17.13;45.22;95725.63;5090364;28;20491;-75
2022/05/30 09:19:18;;;;;;;16.00;11.98;;;;;;;17.23;48.68;95719.44;5089176;28;20048;-75
2022/05/30 09:21:46;;;;;;;15.32;7.88;;;;;;;17.28;48.18;95721.03;5090062;28;20040;-78
2022/05/30 09:24:16;;;;;;;16.13;11.55;;;;;;;17.25;47.38;95717.09;5089481;28;20403;-76
2022/05/30 09:26:42;;;;;;;15.85;7.97;;;;;;;17.42;51.55;95713.72;5090105;28;20047;-77
2022/05/30 09:29:13;;;;;;;25.17;10.23;;;;;;;17.69;50.98;95714.38;5089509;28;20075;-80
2022/05/30 09:31:51;;;;;;;18.98;11.77;;;;;;;17.87;53.30;95720.09;5090120;28;20052;-76
2022/05/30 09:34:37;;;;;;;20.63;11.73;;;;;;;18.04;45.11;95715.09;5089545;28;20040;-76
2022/05/30 09:37:06;;;;;;;23.08;14.52;;;;;;;18.13;49.67;95721.09;5089457;28;20047;-78
2022/05/30 09:39:43;;;;;;;21.17;9.45;;;;;;;17.93;45.60;95713.06;5088865;28;20564;-77
2022/05/30 09:42:24;;;;;;;24.50;10.52;;;;;;;17.95;48.22;95707.94;5089540;28;20048;-78
2022/05/30 09:44:55;;;;;;;21.05;10.52;;;;;;;18.02;44.46;95706.44;5089797;28;20044;-77
2022/05/30 09:47:22;;;;;;;20.73;10.82;;;;;;;17.98;46.53;95707.19;5088412;28;21161;-78
2022/05/30 09:49:51;;;;;;;21.55;9.15;;;;;;;18.21;45.00;95706.19;5077727;28;20044;-77
2022/05/30 09:52:37;;;;;;;20.90;8.55;;;;;;;18.27;43.61;95699.16;5069009;28;20049;-77
2022/05/30 09:55:27;;;;;;;22.20;8.57;;;;;;;18.17;43.90;95697.91;5069075;28;20048;-78
2022/05/30 09:57:55;;;;;;;18.45;10.88;;;;;;;18.16;43.31;95698.25;5069879;28;20048;-79
2022/05/30 10:00:34;;;;;;;19.17;8.52;;;;;;;18.19;44.12;95703.03;5067769;28;20457;-78
2022/05/30 10:03:03;;;;;;;22.23;14.50;;;;;;;18.19;44.41;95697.50;5069633;28;20051;-78
2022/05/30 10:05:32;;;;;;;3.70;2.13;;;;;;;18.09;43.45;95709.25;5060112;28;20044;-77
2022/05/30 10:08:03;;;;;;;408.45;94.25;;;;;;;18.12;45.78;95702.97;5069284;28;20052;-79
2022/05/30 10:10:31;;;;;;;19.13;9.60;;;;;;;18.03;44.49;95705.28;5079298;28;20036;-78
2022/05/30 10:12:59;;;;;;;16.98;7.03;;;;;;;17.80;45.37;95709.03;5089626;28;20050;-78
2022/05/30 10:15:29;;;;;;;17.67;7.18;;;;;;;17.53;45.57;95700.06;5088798;28;20407;-78
2022/05/30 10:17:58;;;;;;;17.13;6.35;;;;;;;17.24;44.34;95710.00;5089422;28;20101;-78
2022/05/30 10:20:36;;;;;;;25.00;12.27;;;;;;;17.17;45.71;95707.97;5088334;28;20052;-78
2022/05/30 10:28:56;;;;;;;122.40;40.47;;;;;;;17.09;46.67;95714.56;5089129;28;20055;-78
2022/05/30 10:31:35;;;;;;;14.82;7.22;;;;;;;16.99;46.55;95709.72;5090447;28;20044;-78
2022/05/30 10:34:19;;;;;;;19.27;10.52;;;;;;;16.81;46.14;95708.69;5092744;28;20406;-77
2022/05/30 10:37:00;;;;;;;13.75;5.03;;;;;;;16.69;45.45;95709.69;5093242;28;20047;-79
2022/05/30 10:39:48;;;;;;;206.82;55.33;;;;;;;16.55;46.01;95709.50;5091662;28;20731;-77
2022/05/30 10:42:22;;;;;;;19.05;8.50;;;;;;;16.37;45.86;95701.03;5092455;28;20036;-77
2022/05/30 10:44:54;;;;;;;33.03;15.23;;;;;;;16.34;47.22;95697.09;5093043;28;20131;-78
2022/05/30 10:47:28;;;;;;;426.88;101.80;;;;;;;16.73;50.67;95696.84;5092206;28;20046;-78
2022/05/30 10:50:03;;;;;;;430.55;112.32;;;;;;;17.08;45.90;95690.19;5092986;28;20056;-78
2022/05/30 10:52:35;;;;;;;17.25;7.65;;;;;;;17.15;45.98;95684.75;5092331;28;20048;-78
2022/05/30 10:55:09;;;;;;;18.90;7.82;;;;;;;17.34;45.94;95695.56;5092557;28;20059;-77
2022/05/30 10:57:41;;;;;;;23.17;9.18;;;;;;;17.14;42.58;95694.19;5092409;28;20044;-78
2022/05/30 11:00:12;;;;;;;22.80;8.87;;;;;;;17.07;43.60;95688.56;5091219;28;20047;-79
2022/05/30 11:02:50;;;;;;;18.10;7.32;;;;;;;16.79;45.57;95689.84;5092013;28;20278;-77
2022/05/30 11:05:23;;;;;;;21.63;9.13;;;;;;;16.67;45.62;95698.31;5091805;28;20074;-77
2022/05/30 11:07:54;;;;;;;;;;;;;;;16.60;46.81;95692.69;5092846;28;20044;-78
2022/05/30 11:10:40;;;;;;;16.67;7.10;;;;;;;16.49;45.48;95698.03;5090360;28;19927;-78
2022/05/30 11:13:16;;;;;;;24.42;19.35;;;;;;;16.59;46.77;95702.09;5092035;28;20044;-78
2022/05/30 11:15:47;;;;;;;26.30;10.27;;;;;;;16.76;49.03;95696.09;5092425;28;20043;-77
2022/05/30 11:18:19;;;;;;;24.90;9.45;;;;;;;17.01;46.63;95701.09;5090773;28;20135;-78
2022/05/30 11:20:55;;;;;;;22.67;8.27;;;;;;;16.89;44.59;95711.16;5091586;28;20040;-80
2022/05/30 11:23:22;;;;;;;20.15;7.63;;;;;;;16.90;43.88;95701.75;5090980;28;20109;-78
2022/05/30 11:26:13;;;;;;;16.25;6.60;;;;;;;16.84;45.63;95705.22;5091996;28;20044;-78
2022/05/30 11:29:03;;;;;;;25.70;9.20;;;;;;;17.07;44.72;95705.09;5082472;28;20048;-77
2022/05/30 11:31:37;;;;;;;29.90;12.32;;;;;;;17.20;46.27;95704.47;5089891;28;20469;-78
2022/05/30 11:34:17;;;;;;;19.25;11.15;;;;;;;17.28;43.78;95713.59;5091685;28;20048;-79
2022/05/30 11:37:01;;;;;;;12.60;5.32;;;;;;;17.21;44.77;95711.53;5091691;28;20044;-78
2022/05/30 11:39:44;;;;;;;18.58;7.47;;;;;;;17.18;42.37;95717.03;5090797;28;20052;-76
2022/05/30 11:42:21;;;;;;;26.70;9.95;;;;;;;17.10;43.51;95707.09;5089966;28;20044;-77
2022/05/30 11:44:52;;;;;;;21.42;7.85;;;;;;;16.99;44.93;95715.22;5091143;28;20044;-78
2022/05/30 11:47:31;;;;;;;19.38;8.00;;;;;;;16.79;44.04;95711.81;5090391;28;20529;-78
2022/05/30 11:50:14;;;;;;;16.63;6.28;;;;;;;16.64;45.26;95715.53;5091654;28;20051;-77
2022/05/30 11:52:59;;;;;;;14.18;6.38;;;;;;;16.47;46.26;95713.34;5091619;28;20528;-77
2022/05/30 11:55:28;;;;;;;15.40;6.32;;;;;;;16.53;43.96;95711.84;5091171;28;20044;-77
2022/05/30 11:58:00;;;;;;;18.30;7.07;;;;;;;16.51;45.88;95712.22;5091570;28;20495;-79
2022/05/30 12:00:32;;;;;;;14.27;7.22;;;;;;;16.47;42.85;95713.34;5091231;28;20044;-77
2022/05/30 12:03:19;;;;;;;15.98;9.07;;;;;;;16.30;44.21;95715.47;5091579;28;20081;-77